Time;durP1;ratioP1;P1;durP2;ratioP2;P2;SDS_P1;SDS_P2;PMS_P1;PMS_P2;Temp;Humidity;BMP_temperature;BMP_pressure;BME280_temperature;BME280_humidity;BME280_pressure;Samples;Min_cycle;Max_cycle;Signal;HPM_P1;HPM_P2
2023/10/31 00:01:32;;;;;;;1.60;0.57;;;11.80;50.60;;;;;;4993670;28;20174;-69
2023/10/31 00:03:58;;;;;;;1.50;0.50;;;11.70;51.00;;;;;;4993870;28;20185;-69
2023/10/31 00:06:24;;;;;;;1.47;0.50;;;11.70;50.30;;;;;;4993803;28;20232;-69
2023/10/31 00:08:49;;;;;;;1.50;0.50;;;11.70;49.50;;;;;;4992324;28;20220;-69
2023/10/31 00:11:15;;;;;;;1.90;0.70;;;11.70;48.90;;;;;;4993328;28;20717;-69
2023/10/31 00:13:40;;;;;;;1.37;0.47;;;11.70;49.10;;;;;;4993665;28;20208;-69
2023/10/31 00:16:06;;;;;;;1.30;0.40;;;11.80;48.80;;;;;;4993636;28;20176;-69
2023/10/31 00:18:32;;;;;;;1.40;0.40;;;11.70;45.90;;;;;;4993385;28;20717;-69
2023/10/31 00:20:57;;;;;;;1.37;0.50;;;11.70;47.90;;;;;;4993355;28;20496;-69
2023/10/31 00:23:23;;;;;;;1.50;0.50;;;11.70;47.30;;;;;;4992142;28;20177;-68
2023/10/31 00:25:48;;;;;;;1.50;0.60;;;11.70;47.40;;;;;;4993405;28;20548;-69
2023/10/31 00:28:14;;;;;;;1.43;0.50;;;11.60;47.90;;;;;;4993367;28;20211;-69
2023/10/31 00:30:39;;;;;;;1.77;0.70;;;11.70;47.90;;;;;;4993064;28;20661;-69
2023/10/31 00:33:05;;;;;;;1.50;0.50;;;11.70;47.80;;;;;;4993231;28;20172;-69
2023/10/31 00:35:30;;;;;;;1.70;0.50;;;11.60;47.90;;;;;;4991854;28;20272;-69
2023/10/31 00:37:56;;;;;;;2.57;1.93;;;11.60;49.10;;;;;;4991800;28;20180;-69
2023/10/31 00:40:22;;;;;;;1.40;0.50;;;11.70;48.50;;;;;;4992691;28;20210;-69
2023/10/31 00:42:47;;;;;;;1.80;0.50;;;11.60;48.80;;;;;;4991759;28;20269;-69
2023/10/31 00:45:13;;;;;;;1.60;0.60;;;11.60;49.40;;;;;;4993029;28;20514;-69
2023/10/31 00:47:38;;;;;;;1.40;0.50;;;11.60;50.20;;;;;;4993166;28;20177;-70
2023/10/31 00:50:04;;;;;;;1.47;0.50;;;11.60;52.20;;;;;;4991400;28;20201;-69
2023/10/31 00:52:30;;;;;;;1.50;0.60;;;11.50;52.70;;;;;;4993154;28;20685;-69
2023/10/31 00:54:55;;;;;;;1.90;0.70;;;11.40;54.40;;;;;;4992076;28;20464;-69
2023/10/31 00:57:21;;;;;;;2.93;0.70;;;11.30;55.40;;;;;;4992849;28;20191;-68
2023/10/31 00:59:47;;;;;;;1.83;0.67;;;11.20;55.60;;;;;;4992508;28;20192;-69
2023/10/31 01:02:13;;;;;;;1.93;0.60;;;11.10;57.10;;;;;;4992821;28;20177;-68
2023/10/31 01:04:38;;;;;;;1.70;0.60;;;11.00;57.90;;;;;;4992797;28;20247;-69
2023/10/31 01:07:04;;;;;;;1.50;0.50;;;10.90;57.80;;;;;;4992669;28;20420;-68
2023/10/31 01:09:30;;;;;;;1.67;0.80;;;10.90;58.70;;;;;;5026654;23;20243;-67
2023/10/31 01:11:55;;;;;;;1.70;0.60;;;10.80;58.20;;;;;;5011980;28;20179;-67
2023/10/31 01:14:21;;;;;;;1.50;0.50;;;10.70;60.10;;;;;;5012079;28;20720;-68
2023/10/31 01:16:46;;;;;;;2.23;0.93;;;10.70;60.50;;;;;;5012406;28;20188;-68
2023/10/31 01:19:12;;;;;;;1.50;0.60;;;10.60;61.80;;;;;;5007381;28;20205;-68
2023/10/31 01:21:37;;;;;;;1.50;0.53;;;10.60;64.10;;;;;;4991008;28;20191;-68
2023/10/31 01:24:03;;;;;;;1.50;0.50;;;10.50;65.10;;;;;;4991234;28;20635;-68
2023/10/31 01:26:28;;;;;;;1.67;0.73;;;10.50;66.70;;;;;;4992711;28;20306;-68
2023/10/31 01:28:54;;;;;;;1.80;0.60;;;10.40;68.20;;;;;;5007596;28;20980;-68
2023/10/31 01:31:20;;;;;;;1.30;0.50;;;10.40;67.50;;;;;;4992103;28;20177;-68
2023/10/31 01:33:45;;;;;;;2.37;1.00;;;10.40;69.40;;;;;;4990909;28;20215;-68
2023/10/31 01:36:12;;;;;;;1.93;0.83;;;10.40;69.90;;;;;;4992229;28;20204;-68
2023/10/31 01:38:38;;;;;;;1.30;0.50;;;10.50;70.10;;;;;;4990893;28;20440;-69
2023/10/31 01:41:04;;;;;;;1.30;0.50;;;10.50;70.50;;;;;;4991982;28;20415;-68
2023/10/31 01:43:34;;;;;;;1.50;0.70;;;10.40;71.10;;;;;;4992309;28;20418;-68
2023/10/31 01:46:00;;;;;;;1.40;0.60;;;10.40;71.30;;;;;;4990923;28;20655;-68
2023/10/31 01:48:28;;;;;;;2.70;0.50;;;10.40;71.60;;;;;;5007447;28;21026;-69
2023/10/31 01:50:54;;;;;;;1.70;0.90;;;10.30;71.50;;;;;;4990605;28;20525;-68
2023/10/31 01:53:20;;;;;;;1.60;0.80;;;10.30;72.30;;;;;;4992089;28;20489;-69
2023/10/31 01:55:46;;;;;;;1.90;0.60;;;10.30;71.50;;;;;;4990762;28;20932;-69
2023/10/31 01:58:12;;;;;;;1.57;0.70;;;10.30;71.50;;;;;;4992254;28;20176;-68
2023/10/31 02:00:42;;;;;;;1.83;0.63;;;10.30;71.50;;;;;;4991670;28;20502;-69
2023/10/31 02:03:08;;;;;;;1.87;0.70;;;10.40;70.10;;;;;;4992025;28;20439;-68
2023/10/31 02:05:34;;;;;;;2.77;0.80;;;10.40;68.90;;;;;;4992070;28;20440;-68
2023/10/31 02:08:01;;;;;;;2.00;0.70;;;10.40;68.50;;;;;;4995773;28;20456;-68
2023/10/31 02:10:27;;;;;;;1.50;0.67;;;10.40;69.40;;;;;;5010684;28;20462;-70
2023/10/31 02:12:53;;;;;;;1.40;0.60;;;10.50;70.10;;;;;;4996201;28;20479;-68
2023/10/31 02:15:18;;;;;;;2.20;0.70;;;10.50;68.40;;;;;;4994677;28;20291;-68
2023/10/31 02:17:44;;;;;;;2.27;0.80;;;10.50;67.80;;;;;;4995828;28;20174;-68
2023/10/31 02:20:10;;;;;;;1.90;1.20;;;10.50;68.40;;;;;;5010533;28;20196;-68
2023/10/31 02:22:35;;;;;;;1.50;0.73;;;10.60;68.80;;;;;;4995684;28;20172;-68
2023/10/31 02:25:01;;;;;;;2.00;0.80;;;10.60;68.00;;;;;;4995922;28;20426;-69
2023/10/31 02:27:26;;;;;;;1.50;0.60;;;10.60;67.40;;;;;;4995845;28;20192;-69
2023/10/31 02:29:52;;;;;;;1.53;0.60;;;10.60;67.40;;;;;;4995326;28;20201;-69
2023/10/31 02:32:17;;;;;;;3.70;1.20;;;10.60;66.80;;;;;;4994354;28;20184;-69
2023/10/31 02:34:44;;;;;;;2.57;0.60;;;10.60;68.60;;;;;;5010481;28;20580;-68
2023/10/31 02:37:10;;;;;;;1.60;0.70;;;10.70;66.90;;;;;;4995475;28;20185;-69
2023/10/31 02:39:37;;;;;;;2.10;0.73;;;10.60;67.10;;;;;;4995223;28;20432;-69
2023/10/31 02:42:02;;;;;;;1.60;0.70;;;10.70;66.90;;;;;;5010630;28;20230;-69
2023/10/31 02:44:28;;;;;;;2.00;0.73;;;10.60;66.00;;;;;;4995321;28;20419;-69
2023/10/31 02:46:54;;;;;;;1.50;0.60;;;10.60;66.30;;;;;;4995325;28;20173;-68
2023/10/31 02:49:19;;;;;;;2.13;0.80;;;10.50;66.40;;;;;;4995172;28;20197;-68
2023/10/31 02:51:45;;;;;;;2.17;1.40;;;10.50;66.70;;;;;;4994879;28;20176;-68
2023/10/31 02:54:11;;;;;;;1.53;0.67;;;10.50;64.40;;;;;;4995060;28;20298;-69
2023/10/31 02:56:36;;;;;;;1.50;0.77;;;10.40;65.10;;;;;;4995193;28;20179;-68
2023/10/31 02:59:02;;;;;;;2.03;1.07;;;10.40;66.00;;;;;;4994897;28;20253;-69
2023/10/31 03:01:30;;;;;;;4.80;1.20;;;10.40;66.60;;;;;;4994825;28;20174;-68
2023/10/31 03:03:55;;;;;;;3.73;0.70;;;10.40;65.60;;;;;;5009921;28;20191;-69
2023/10/31 03:06:21;;;;;;;3.30;0.70;;;10.30;66.50;;;;;;4994912;28;20420;-68
2023/10/31 03:08:47;;;;;;;1.90;0.60;;;10.30;66.90;;;;;;4994924;28;20235;-68
2023/10/31 03:11:23;;;;;;;1.90;0.83;;;10.30;66.50;;;;;;4994713;28;20184;-68
2023/10/31 03:13:50;;;;;;;1.73;0.70;;;10.40;66.60;;;;;;5009905;28;20208;-68
2023/10/31 03:16:16;;;;;;;1.90;0.73;;;10.40;66.60;;;;;;4994832;28;20971;-68
2023/10/31 03:18:41;;;;;;;1.40;0.50;;;10.50;66.60;;;;;;4992568;28;20447;-68
2023/10/31 03:21:07;;;;;;;1.57;0.80;;;10.40;65.70;;;;;;4994674;28;20189;-69
2023/10/31 03:23:33;;;;;;;2.23;1.07;;;10.40;66.60;;;;;;5009681;28;20561;-68
2023/10/31 03:25:58;;;;;;;1.80;1.00;;;10.40;67.40;;;;;;4994626;28;20526;-68
2023/10/31 03:28:24;;;;;;;1.50;0.80;;;10.40;68.30;;;;;;5009596;28;20325;-69
2023/10/31 03:30:50;;;;;;;2.03;0.80;;;10.40;66.60;;;;;;4994376;28;20194;-68
2023/10/31 03:33:17;;;;;;;1.73;0.90;;;10.40;67.10;;;;;;5009443;28;20181;-68
2023/10/31 03:35:43;;;;;;;5.30;1.37;;;10.40;67.50;;;;;;5009453;28;20424;-68
2023/10/31 03:38:08;;;;;;;2.57;1.43;;;10.40;68.00;;;;;;4993032;28;20930;-69
2023/10/31 03:40:34;;;;;;;2.00;1.03;;;10.50;67.40;;;;;;4993907;28;20439;-68
2023/10/31 03:43:00;;;;;;;3.60;1.27;;;10.50;66.80;;;;;;4993001;28;20177;-68
2023/10/31 03:45:25;;;;;;;2.10;1.03;;;10.50;68.00;;;;;;4994285;28;20598;-68
2023/10/31 03:47:51;;;;;;;1.70;0.80;;;10.50;69.00;;;;;;4994067;28;20181;-68
2023/10/31 03:50:16;;;;;;;1.90;1.07;;;10.40;69.40;;;;;;4993803;28;20199;-68
2023/10/31 03:52:42;;;;;;;2.33;1.00;;;10.30;70.70;;;;;;4993127;28;20546;-68
2023/10/31 03:55:08;;;;;;;1.97;0.70;;;10.30;71.50;;;;;;4992933;28;20216;-68
2023/10/31 03:57:34;;;;;;;2.17;0.60;;;10.10;70.90;;;;;;4992738;28;20212;-67
2023/10/31 04:00:00;;;;;;;2.00;0.93;;;10.00;71.20;;;;;;5008670;28;20486;-69
2023/10/31 04:02:25;;;;;;;1.53;0.80;;;10.00;71.80;;;;;;4993975;28;20542;-69
2023/10/31 04:04:51;;;;;;;1.50;0.70;;;10.00;70.40;;;;;;4993868;28;20460;-69
2023/10/31 04:07:17;;;;;;;1.70;0.70;;;;;;;;;;4994094;28;20553;-69
2023/10/31 04:09:43;;;;;;;1.70;0.73;;;10.00;71.40;;;;;;4993482;28;20266;-69
2023/10/31 04:12:09;;;;;;;2.40;1.30;;;10.10;71.80;;;;;;4993723;28;20495;-70
2023/10/31 04:14:34;;;;;;;1.93;0.90;;;10.10;71.30;;;;;;4992366;28;20597;-67
2023/10/31 04:17:00;;;;;;;1.50;0.70;;;10.10;71.30;;;;;;4993510;28;20590;-68
2023/10/31 04:19:25;;;;;;;1.40;0.60;;;10.10;70.10;;;;;;4992159;28;20208;-68
2023/10/31 04:21:53;;;;;;;1.80;0.73;;;10.10;70.50;;;;;;4993497;28;20177;-68
2023/10/31 04:24:19;;;;;;;1.67;0.60;;;10.10;67.80;;;;;;4993551;28;20176;-68
2023/10/31 04:26:45;;;;;;;1.60;0.70;;;10.10;65.90;;;;;;5008980;28;20446;-68
2023/10/31 04:29:10;;;;;;;1.70;0.80;;;10.10;66.40;;;;;;4993020;28;20200;-68
2023/10/31 04:31:36;;;;;;;1.50;0.70;;;10.10;67.10;;;;;;4992693;28;20192;-68
2023/10/31 04:34:01;;;;;;;1.77;0.67;;;10.10;66.50;;;;;;4993266;28;20833;-68
2023/10/31 04:36:27;;;;;;;1.70;0.70;;;10.10;64.80;;;;;;4993481;28;20180;-68
2023/10/31 04:38:53;;;;;;;1.70;0.83;;;10.10;64.50;;;;;;4993076;28;20573;-68
2023/10/31 04:41:19;;;;;;;1.77;0.70;;;10.10;65.00;;;;;;4992948;28;20726;-68
2023/10/31 04:43:44;;;;;;;2.57;0.93;;;10.00;65.40;;;;;;4993106;28;20462;-68
2023/10/31 04:46:10;;;;;;;1.70;1.10;;;10.00;65.40;;;;;;4993077;28;20582;-68
2023/10/31 04:48:35;;;;;;;1.50;0.70;;;10.10;65.00;;;;;;4991530;28;20383;-68
2023/10/31 04:51:01;;;;;;;1.80;0.70;;;10.00;64.20;;;;;;4991445;28;20180;-68
2023/10/31 04:53:26;;;;;;;2.47;0.77;;;10.00;65.40;;;;;;4991670;28;20296;-68
2023/10/31 04:55:52;;;;;;;2.00;1.10;;;10.00;65.00;;;;;;5007958;28;20222;-68
2023/10/31 04:58:17;;;;;;;2.97;1.23;;;10.00;64.10;;;;;;4992812;28;20210;-68
2023/10/31 05:00:44;;;;;;;1.80;0.60;;;10.00;64.50;;;;;;4991198;28;20189;-68
2023/10/31 05:03:09;;;;;;;1.50;0.63;;;9.90;65.80;;;;;;4991648;28;20203;-68
2023/10/31 05:05:35;;;;;;;3.50;0.80;;;9.80;66.30;;;;;;4991424;28;20463;-68
2023/10/31 05:08:00;;;;;;;1.50;0.77;;;9.80;66.20;;;;;;4992933;28;20178;-68
2023/10/31 05:10:26;;;;;;;1.50;0.70;;;9.80;67.10;;;;;;4992429;28;20212;-68
2023/10/31 05:12:52;;;;;;;1.57;0.70;;;9.80;68.70;;;;;;4992682;28;20633;-68
2023/10/31 05:15:18;;;;;;;1.60;0.60;;;9.80;67.60;;;;;;5007514;28;20213;-68
2023/10/31 05:17:43;;;;;;;1.93;0.73;;;9.80;66.70;;;;;;4992536;28;20426;-68
2023/10/31 05:20:09;;;;;;;4.40;0.70;;;9.70;67.00;;;;;;4992211;28;20204;-68
2023/10/31 05:22:36;;;;;;;1.47;0.73;;;9.70;66.50;;;;;;4992460;28;20183;-68
2023/10/31 05:25:02;;;;;;;2.07;0.60;;;9.70;67.00;;;;;;4992632;28;20423;-68
2023/10/31 05:27:28;;;;;;;1.60;0.80;;;9.70;67.30;;;;;;4992447;28;20419;-68
2023/10/31 05:29:54;;;;;;;1.30;0.50;;;9.60;68.00;;;;;;4991915;28;20467;-68
2023/10/31 05:32:20;;;;;;;1.50;0.63;;;9.60;67.80;;;;;;4990926;28;20948;-69
2023/10/31 05:34:45;;;;;;;2.40;0.90;;;9.60;68.40;;;;;;4992213;28;20217;-69
2023/10/31 05:37:11;;;;;;;2.20;0.70;;;9.60;68.80;;;;;;4992825;28;20200;-69
2023/10/31 05:39:36;;;;;;;2.13;0.70;;;9.60;66.90;;;;;;5007350;28;20208;-69
2023/10/31 05:42:03;;;;;;;1.80;0.70;;;9.60;66.50;;;;;;5006858;28;20617;-68
2023/10/31 05:44:28;;;;;;;2.30;1.00;;;9.50;67.10;;;;;;4992258;28;20180;-68
2023/10/31 05:46:54;;;;;;;1.50;0.60;;;9.50;67.10;;;;;;5007519;28;20783;-68
2023/10/31 05:49:20;;;;;;;1.70;0.70;;;9.50;67.50;;;;;;4992230;28;20215;-67
2023/10/31 05:51:53;;;;;;;1.80;0.83;;;9.50;69.30;;;;;;4990664;28;20508;-67
2023/10/31 05:54:19;;;;;;;2.50;0.80;;;9.60;69.30;;;;;;4992159;28;20707;-68
2023/10/31 05:56:45;;;;;;;1.50;0.70;;;9.60;67.40;;;;;;4991985;28;20423;-68
2023/10/31 05:59:11;;;;;;;2.83;1.33;;;9.60;65.70;;;;;;4991796;28;20811;-68
2023/10/31 06:01:37;;;;;;;3.03;0.80;;;9.60;65.40;;;;;;5007128;28;20271;-68
2023/10/31 06:04:03;;;;;;;1.57;0.60;;;9.50;64.90;;;;;;4990696;28;20467;-69
2023/10/31 06:06:32;;;;;;;1.77;0.50;;;9.60;65.10;;;;;;4992127;28;20603;-68
2023/10/31 06:08:58;;;;;;;1.70;0.70;;;9.50;64.90;;;;;;4990769;28;20458;-68
2023/10/31 06:11:23;;;;;;;3.00;1.27;;;9.50;65.40;;;;;;5006755;28;20431;-68
2023/10/31 06:13:49;;;;;;;1.67;0.70;;;9.40;64.20;;;;;;4990484;28;20211;-68
2023/10/31 06:16:14;;;;;;;1.60;0.70;;;9.40;63.70;;;;;;4990727;28;20187;-68
2023/10/31 06:18:40;;;;;;;1.77;0.90;;;9.30;64.00;;;;;;4991813;28;20236;-68
2023/10/31 06:21:08;;;;;;;1.47;0.57;;;9.30;65.20;;;;;;4990449;28;20530;-68
2023/10/31 06:23:35;;;;;;;2.00;1.27;;;9.30;65.50;;;;;;4991906;28;20657;-69
2023/10/31 06:26:00;;;;;;;1.97;0.80;;;9.20;66.20;;;;;;4990448;28;20814;-68
2023/10/31 06:28:26;;;;;;;1.73;0.87;;;9.20;66.50;;;;;;5006548;28;20431;-68
2023/10/31 06:30:51;;;;;;;2.23;1.00;;;9.20;67.60;;;;;;5006406;28;20287;-68
2023/10/31 06:33:17;;;;;;;1.97;0.90;;;9.20;66.50;;;;;;4990471;28;20202;-68
2023/10/31 06:35:42;;;;;;;1.93;0.93;;;9.30;66.00;;;;;;4991600;28;20181;-68
2023/10/31 06:38:08;;;;;;;2.37;0.90;;;9.30;63.50;;;;;;5006694;28;20190;-68
2023/10/31 06:40:33;;;;;;;3.60;0.93;;;9.30;64.10;;;;;;5006417;28;20724;-68
2023/10/31 06:43:01;;;;;;;2.13;0.67;;;9.40;65.60;;;;;;4991388;28;20270;-68
2023/10/31 06:45:27;;;;;;;2.47;1.00;;;9.40;62.90;;;;;;4991824;28;20238;-68
2023/10/31 06:47:53;;;;;;;1.90;0.83;;;9.50;62.20;;;;;;4991641;28;20419;-68
2023/10/31 06:50:18;;;;;;;1.80;1.07;;;9.70;60.20;;;;;;4991309;28;20208;-69
2023/10/31 06:52:44;;;;;;;1.70;0.77;;;9.80;59.20;;;;;;4991756;28;21051;-68
2023/10/31 06:55:09;;;;;;;2.07;0.90;;;9.90;56.40;;;;;;4993790;28;20230;-68
2023/10/31 06:57:35;;;;;;;3.70;1.80;;;9.90;55.30;;;;;;4995076;28;20185;-69
2023/10/31 07:00:00;;;;;;;1.87;1.00;;;9.90;53.30;;;;;;4993402;28;20223;-68
2023/10/31 07:02:26;;;;;;;2.43;1.13;;;9.90;54.30;;;;;;4994061;28;20184;-69
2023/10/31 07:04:51;;;;;;;2.10;1.00;;;9.90;52.00;;;;;;4995397;28;20263;-69
2023/10/31 07:07:17;;;;;;;2.70;1.30;;;9.90;52.20;;;;;;4994982;28;20316;-69
2023/10/31 07:09:42;;;;;;;1.60;0.60;;;10.00;52.00;;;;;;5028439;23;20230;-71
2023/10/31 07:12:08;;;;;;;2.53;0.80;;;10.00;50.10;;;;;;5015484;28;20259;-71
2023/10/31 07:14:33;;;;;;;2.20;0.90;;;10.10;49.90;;;;;;5016523;28;20298;-71
2023/10/31 07:16:59;;;;;;;1.97;1.03;;;10.20;50.00;;;;;;5015424;28;20609;-71
2023/10/31 07:19:25;;;;;;;1.77;0.73;;;10.30;45.60;;;;;;5008325;28;20566;-70
2023/10/31 07:21:50;;;;;;;3.40;1.30;;;10.20;45.40;;;;;;4995206;28;20800;-71
2023/10/31 07:24:16;;;;;;;3.23;1.20;;;10.30;47.00;;;;;;4995487;28;20188;-71
2023/10/31 07:26:41;;;;;;;1.93;0.73;;;10.50;47.50;;;;;;4995166;28;20177;-69
2023/10/31 07:29:07;;;;;;;2.00;0.73;;;10.50;43.40;;;;;;4995149;28;20200;-69
2023/10/31 07:31:32;;;;;;;1.77;0.93;;;10.50;43.80;;;;;;4994899;28;20173;-70
2023/10/31 07:33:58;;;;;;;2.03;0.70;;;10.60;44.40;;;;;;4994914;28;20204;-70
2023/10/31 07:36:25;;;;;;;1.90;0.80;;;10.70;43.40;;;;;;4993621;28;20185;-70
2023/10/31 07:38:50;;;;;;;3.47;1.77;;;10.80;41.10;;;;;;4994846;28;20250;-70
2023/10/31 07:41:16;;;;;;;5.30;0.90;;;10.70;37.80;;;;;;4993217;28;20463;-70
2023/10/31 07:43:41;;;;;;;3.03;1.20;;;10.60;40.90;;;;;;4994681;28;20652;-69
2023/10/31 07:46:07;;;;;;;2.80;1.23;;;10.70;40.60;;;;;;4994419;28;20192;-70
2023/10/31 07:48:32;;;;;;;1.63;0.73;;;10.80;40.30;;;;;;4993175;28;20184;-70
2023/10/31 07:50:58;;;;;;;4.63;1.27;;;10.80;39.20;;;;;;4994216;28;20270;-70
2023/10/31 07:53:23;;;;;;;4.80;1.20;;;11.00;37.50;;;;;;4994325;28;20181;-69
2023/10/31 07:55:49;;;;;;;3.23;1.33;;;11.00;37.00;;;;;;4994367;28;20215;-70
2023/10/31 07:58:15;;;;;;;2.50;0.80;;;11.10;31.90;;;;;;4992954;28;20680;-70
2023/10/31 08:00:41;;;;;;;3.07;1.17;;;11.00;32.90;;;;;;4994025;28;20197;-70
2023/10/31 08:03:06;;;;;;;3.63;1.20;;;11.10;32.40;;;;;;4993820;28;20243;-71
2023/10/31 08:05:32;;;;;;;2.17;1.00;;;11.20;31.20;;;;;;4995177;28;20423;-71
2023/10/31 08:07:58;;;;;;;4.37;1.00;;;11.20;32.00;;;;;;4995128;28;20183;-69
2023/10/31 08:10:24;;;;;;;2.27;1.17;;;11.20;31.00;;;;;;4994623;28;20243;-70
2023/10/31 08:12:49;;;;;;;2.00;0.87;;;11.30;31.10;;;;;;4992803;28;20930;-70
2023/10/31 08:15:16;;;;;;;1.97;0.80;;;11.20;29.10;;;;;;4994289;28;20216;-70
2023/10/31 08:17:42;;;;;;;2.03;0.87;;;11.20;29.70;;;;;;4993898;28;20200;-69
2023/10/31 08:20:09;;;;;;;2.90;1.00;;;11.30;28.40;;;;;;4992159;28;21065;-70
2023/10/31 08:22:35;;;;;;;4.27;1.10;;;11.50;30.10;;;;;;4992610;28;20464;-70
2023/10/31 08:25:01;;;;;;;1.80;0.90;;;11.70;30.40;;;;;;4993744;28;20509;-70
2023/10/31 08:27:26;;;;;;;2.20;1.10;;;11.80;28.00;;;;;;4992508;28;20569;-70
2023/10/31 08:29:52;;;;;;;2.30;1.03;;;12.00;29.00;;;;;;4993769;28;20218;-70
2023/10/31 08:32:17;;;;;;;6.23;1.13;;;12.10;27.30;;;;;;4993700;28;20191;-70
2023/10/31 08:34:43;;;;;;;7.37;1.30;;;12.10;25.60;;;;;;4992204;28;20219;-70
2023/10/31 08:37:09;;;;;;;5.37;1.50;;;12.10;26.20;;;;;;4993264;28;20685;-69
2023/10/31 08:39:34;;;;;;;3.10;1.37;;;12.10;24.70;;;;;;4992868;28;20201;-70
2023/10/31 08:42:00;;;;;;;2.13;0.87;;;12.20;24.10;;;;;;4992730;28;20180;-70
2023/10/31 08:44:25;;;;;;;2.83;1.07;;;12.60;24.40;;;;;;4992964;28;20641;-69
2023/10/31 08:46:51;;;;;;;3.10;0.80;;;12.80;22.90;;;;;;4991670;28;20239;-70
2023/10/31 08:49:17;;;;;;;2.47;1.23;;;12.80;20.70;;;;;;4992752;28;20267;-70
2023/10/31 08:51:43;;;;;;;1.70;0.70;;;12.80;20.70;;;;;;4992678;28;20173;-70
2023/10/31 08:54:09;;;;;;;3.43;1.43;;;12.70;20.90;;;;;;4991458;28;20781;-70
2023/10/31 08:56:35;;;;;;;3.40;1.40;;;12.90;21.30;;;;;;4993003;28;20970;-70
2023/10/31 08:59:01;;;;;;;2.53;1.10;;;12.90;20.30;;;;;;4994493;28;20525;-70
2023/10/31 09:01:28;;;;;;;3.10;0.90;;;12.90;21.10;;;;;;4992378;28;20186;-70
2023/10/31 09:03:54;;;;;;;5.07;1.87;;;13.00;20.70;;;;;;4993043;28;20180;-70
2023/10/31 09:06:19;;;;;;;3.30;1.77;;;13.10;21.50;;;;;;4992749;28;20949;-70
2023/10/31 09:08:45;;;;;;;5.80;1.30;;;13.10;20.60;;;;;;4992636;28;20247;-70
2023/10/31 09:11:10;;;;;;;1.70;0.70;;;13.30;20.90;;;;;;4992247;28;20703;-70
2023/10/31 09:13:36;;;;;;;4.10;1.50;;;13.10;19.80;;;;;;4991309;28;20684;-69
2023/10/31 09:16:01;;;;;;;3.10;1.20;;;13.00;21.10;;;;;;4992053;28;20196;-69
2023/10/31 09:18:27;;;;;;;2.80;1.23;;;13.10;20.50;;;;;;4992414;28;20244;-69
2023/10/31 09:20:53;;;;;;;2.40;1.10;;;13.10;19.50;;;;;;4990896;28;20688;-69
2023/10/31 09:23:18;;;;;;;3.33;1.47;;;13.10;18.40;;;;;;4992353;28;20182;-69
2023/10/31 09:25:44;;;;;;;4.17;1.40;;;12.90;18.70;;;;;;4992174;28;20243;-69
2023/10/31 09:28:10;;;;;;;2.33;1.13;;;13.10;19.50;;;;;;4992228;28;20667;-69
2023/10/31 09:30:36;;;;;;;2.57;1.10;;;12.90;18.30;;;;;;4991932;28;20287;-69
2023/10/31 09:33:01;;;;;;;3.50;1.33;;;13.20;19.10;;;;;;4992278;28;20425;-69
2023/10/31 09:35:27;;;;;;;3.13;1.43;;;13.50;18.30;;;;;;4992153;28;20612;-69
2023/10/31 09:37:53;;;;;;;3.07;1.67;;;13.60;16.50;;;;;;4990899;28;20215;-69
2023/10/31 09:40:19;;;;;;;5.30;1.60;;;13.50;16.50;;;;;;4991693;28;20203;-69
2023/10/31 09:42:46;;;;;;;2.17;1.17;;;13.50;16.10;;;;;;4992125;28;20782;-70
2023/10/31 09:45:11;;;;;;;2.77;1.23;;;13.50;16.80;;;;;;4990827;28;20455;-69
2023/10/31 09:47:37;;;;;;;2.87;1.10;;;13.50;16.00;;;;;;4992110;28;20445;-69
2023/10/31 09:50:03;;;;;;;3.80;1.17;;;13.60;16.50;;;;;;4991732;28;20530;-69
2023/10/31 09:52:29;;;;;;;3.60;0.73;;;13.70;15.00;;;;;;4992028;28;20184;-69
2023/10/31 09:54:55;;;;;;;2.70;1.07;;;13.70;15.30;;;;;;4991869;28;20461;-69
2023/10/31 09:57:21;;;;;;;4.67;1.37;;;13.90;16.00;;;;;;4990717;28;20202;-69
2023/10/31 09:59:47;;;;;;;5.13;1.80;;;14.10;15.40;;;;;;4991728;28;20921;-69
2023/10/31 10:02:12;;;;;;;5.10;1.43;;;14.20;14.30;;;;;;4991927;28;20177;-70
2023/10/31 10:04:38;;;;;;;2.00;0.80;;;14.20;14.50;;;;;;4991992;28;20187;-69
2023/10/31 10:07:04;;;;;;;2.27;1.00;;;14.00;14.40;;;;;;4991812;28;20172;-69
2023/10/31 10:09:31;;;;;;;2.70;1.17;;;14.30;14.90;;;;;;4991621;28;20652;-69
2023/10/31 10:11:59;;;;;;;2.67;1.30;;;14.70;13.90;;;;;;4991598;28;20495;-70
2023/10/31 10:14:28;;;;;;;3.50;1.00;;;14.80;13.00;;;;;;4991652;28;21053;-70
2023/10/31 10:16:57;;;;;;;2.73;1.00;;;14.80;13.30;;;;;;4991793;28;20786;-69
2023/10/31 10:19:23;;;;;;;3.10;0.80;;;14.90;12.30;;;;;;4991719;28;20431;-69
2023/10/31 10:21:57;;;;;;;2.63;1.20;;;14.60;12.40;;;;;;4991453;28;20901;-69
2023/10/31 10:24:24;;;;;;;2.90;1.20;;;14.50;13.40;;;;;;4991591;28;20514;-69
2023/10/31 10:26:50;;;;;;;6.33;1.23;;;14.50;13.70;;;;;;4990469;28;20433;-70
2023/10/31 10:29:16;;;;;;;3.23;1.20;;;14.40;13.70;;;;;;4993941;28;20450;-69
2023/10/31 10:31:42;;;;;;;2.13;1.20;;;14.60;14.20;;;;;;4995246;28;20423;-70
2023/10/31 10:34:14;;;;;;;2.13;0.80;;;14.50;13.70;;;;;;4993978;28;20983;-70
2023/10/31 10:36:39;;;;;;;4.00;1.13;;;14.10;14.50;;;;;;4995584;28;20646;-69
2023/10/31 10:39:06;;;;;;;2.00;0.90;;;14.00;15.10;;;;;;4995079;28;20473;-69
2023/10/31 10:41:34;;;;;;;2.53;1.10;;;14.20;14.50;;;;;;4994976;28;20173;-69
2023/10/31 10:44:07;;;;;;;4.17;1.60;;;14.10;15.20;;;;;;4993920;28;20426;-69
2023/10/31 10:46:35;;;;;;;5.23;1.57;;;14.10;15.60;;;;;;4995167;28;20453;-69
2023/10/31 10:49:04;;;;;;;2.07;0.80;;;14.10;16.80;;;;;;4994874;28;20435;-69
2023/10/31 10:51:42;;;;;;;4.80;1.57;;;13.90;16.70;;;;;;4994854;28;20404;-69
2023/10/31 10:54:14;;;;;;;3.03;1.37;;;13.90;16.70;;;;;;4994993;28;20450;-69
2023/10/31 10:56:56;;;;;;;2.70;1.23;;;14.20;16.20;;;;;;4995060;28;20824;-69
2023/10/31 10:59:30;;;;;;;2.90;1.10;;;14.10;16.70;;;;;;4994809;28;20427;-69
2023/10/31 11:01:58;;;;;;;2.90;1.20;;;13.90;16.00;;;;;;4995073;28;20412;-69
2023/10/31 11:04:24;;;;;;;2.37;1.00;;;13.90;16.70;;;;;;4994780;28;20939;-69
2023/10/31 11:06:50;;;;;;;2.20;1.17;;;14.10;17.10;;;;;;4995324;28;20446;-69
2023/10/31 11:09:17;;;;;;;2.03;1.03;;;14.10;16.80;;;;;;4994866;28;20448;-69
2023/10/31 11:11:48;;;;;;;2.13;1.27;;;14.10;18.00;;;;;;4994469;28;20204;-69
2023/10/31 11:14:15;;;;;;;3.03;0.93;;;14.10;16.80;;;;;;4994657;28;20585;-69
2023/10/31 11:16:55;;;;;;;3.00;1.40;;;14.00;16.80;;;;;;4994632;28;20969;-68
2023/10/31 11:19:24;;;;;;;2.87;1.07;;;14.00;16.70;;;;;;4994485;28;20462;-69
2023/10/31 11:22:00;;;;;;;4.30;1.83;;;14.00;16.90;;;;;;4994235;28;20787;-69
2023/10/31 11:24:32;;;;;;;1.90;0.70;;;14.30;18.40;;;;;;4994386;28;20396;-69
2023/10/31 11:27:03;;;;;;;2.00;1.07;;;14.70;16.30;;;;;;4994342;28;20446;-69
2023/10/31 11:29:31;;;;;;;2.40;0.90;;;14.70;15.30;;;;;;4994310;28;20484;-69
2023/10/31 11:31:57;;;;;;;2.93;1.00;;;14.40;16.20;;;;;;4994122;28;20424;-69
2023/10/31 11:34:25;;;;;;;1.70;0.70;;;14.80;17.30;;;;;;4994200;28;20460;-69
2023/10/31 11:36:52;;;;;;;2.73;0.90;;;14.90;15.40;;;;;;4994566;28;20415;-70
2023/10/31 11:39:25;;;;;;;1.70;0.60;;;14.70;15.60;;;;;;4993870;28;20431;-70
2023/10/31 11:41:54;;;;;;;1.93;0.83;;;15.00;14.90;;;;;;4994502;28;20940;-70
2023/10/31 11:44:26;;;;;;;2.00;0.90;;;14.70;14.50;;;;;;4994550;28;20416;-70
2023/10/31 11:46:52;;;;;;;2.27;0.90;;;14.60;15.30;;;;;;4994751;28;20444;-68
2023/10/31 11:49:38;;;;;;;2.10;0.90;;;14.80;16.60;;;;;;4993884;28;20522;-69
2023/10/31 11:52:17;;;;;;;1.70;0.70;;;14.70;14.60;;;;;;4993766;28;20428;-71
2023/10/31 11:54:43;;;;;;;2.00;0.70;;;14.60;16.10;;;;;;4993912;28;20962;-68
2023/10/31 11:57:08;;;;;;;2.67;1.30;;;14.50;16.80;;;;;;4993880;28;20420;-68
2023/10/31 11:59:38;;;;;;;1.70;0.63;;;14.10;16.20;;;;;;4993589;28;20427;-69
2023/10/31 12:02:14;;;;;;;2.53;0.90;;;14.00;16.80;;;;;;4993557;28;20536;-69
2023/10/31 12:04:39;;;;;;;4.63;0.90;;;13.90;17.50;;;;;;4993746;28;20920;-69
2023/10/31 12:07:05;;;;;;;8.33;1.30;;;14.20;17.20;;;;;;4993424;28;20463;-69
2023/10/31 12:09:31;;;;;;;2.20;0.93;;;14.30;15.70;;;;;;4993121;28;20212;-69
2023/10/31 12:11:56;;;;;;;1.97;0.90;;;14.50;14.80;;;;;;4993272;28;20180;-69
2023/10/31 12:14:22;;;;;;;1.90;0.90;;;14.80;15.10;;;;;;4993446;28;20223;-69
2023/10/31 12:16:47;;;;;;;1.90;0.80;;;14.80;13.80;;;;;;4993322;28;20193;-69
2023/10/31 12:19:13;;;;;;;2.33;0.90;;;14.80;14.20;;;;;;4993244;28;20614;-69
2023/10/31 12:21:43;;;;;;;2.23;1.10;;;15.00;14.30;;;;;;4993235;28;20177;-69
2023/10/31 12:24:11;;;;;;;2.87;0.73;;;15.00;12.70;;;;;;4993385;28;20223;-69
2023/10/31 12:26:37;;;;;;;3.27;1.20;;;15.00;12.90;;;;;;4993435;28;20420;-69
2023/10/31 12:29:20;;;;;;;1.83;0.80;;;15.10;12.80;;;;;;4993279;28;20459;-69
2023/10/31 12:31:48;;;;;;;1.70;0.60;;;15.10;13.00;;;;;;4992900;28;20987;-70
2023/10/31 12:34:15;;;;;;;2.77;1.10;;;15.20;12.90;;;;;;4991829;28;20455;-69
2023/10/31 12:36:42;;;;;;;3.87;1.10;;;15.30;12.30;;;;;;4992749;28;20956;-70
2023/10/31 12:39:10;;;;;;;1.80;0.73;;;15.30;11.20;;;;;;4992766;28;20471;-70
2023/10/31 12:41:37;;;;;;;3.00;1.03;;;15.30;10.90;;;;;;4992523;28;20404;-69
2023/10/31 12:44:04;;;;;;;1.80;0.70;;;15.20;11.30;;;;;;4992734;28;20424;-70